sensor_id;sensor_type;location;lat;lon;timestamp;P1;durP1;ratioP1;P2;durP2;ratioP2
10509;SDS011;5303;53.266;10.410;2022-10-31T00:01:25;13.17;;;10.80;;
10509;SDS011;5303;53.266;10.410;2022-10-31T00:03:53;15.90;;;11.50;;
10509;SDS011;5303;53.266;10.410;2022-10-31T00:06:18;13.73;;;10.83;;
10509;SDS011;5303;53.266;10.410;2022-10-31T00:08:45;13.40;;;10.53;;
10509;SDS011;5303;53.266;10.410;2022-10-31T00:11:11;18.47;;;12.33;;
10509;SDS011;5303;53.266;10.410;2022-10-31T00:13:37;13.97;;;10.83;;
10509;SDS011;5303;53.266;10.410;2022-10-31T00:16:02;20.07;;;11.97;;
10509;SDS011;5303;53.266;10.410;2022-10-31T00:18:27;16.07;;;11.23;;
10509;SDS011;5303;53.266;10.410;2022-10-31T00:21:02;18.13;;;12.40;;
10509;SDS011;5303;53.266;10.410;2022-10-31T00:23:28;15.37;;;11.23;;
10509;SDS011;5303;53.266;10.410;2022-10-31T00:25:54;20.03;;;12.27;;
10509;SDS011;5303;53.266;10.410;2022-10-31T00:28:19;13.80;;;10.97;;
10509;SDS011;5303;53.266;10.410;2022-10-31T00:30:44;16.67;;;11.80;;
10509;SDS011;5303;53.266;10.410;2022-10-31T00:33:09;16.00;;;11.27;;
10509;SDS011;5303;53.266;10.410;2022-10-31T00:35:35;14.00;;;11.03;;
10509;SDS011;5303;53.266;10.410;2022-10-31T00:38:00;15.37;;;11.60;;
10509;SDS011;5303;53.266;10.410;2022-10-31T00:40:25;15.47;;;11.53;;
10509;SDS011;5303;53.266;10.410;2022-10-31T00:42:51;15.97;;;10.73;;
10509;SDS011;5303;53.266;10.410;2022-10-31T00:45:16;17.37;;;11.73;;
10509;SDS011;5303;53.266;10.410;2022-10-31T00:47:41;15.17;;;11.37;;
10509;SDS011;5303;53.266;10.410;2022-10-31T00:50:07;14.73;;;10.60;;
10509;SDS011;5303;53.266;10.410;2022-10-31T00:52:33;15.13;;;11.17;;
10509;SDS011;5303;53.266;10.410;2022-10-31T00:54:58;15.80;;;11.33;;
10509;SDS011;5303;53.266;10.410;2022-10-31T00:57:23;19.17;;;11.70;;
10509;SDS011;5303;53.266;10.410;2022-10-31T00:59:48;15.47;;;11.10;;
10509;SDS011;5303;53.266;10.410;2022-10-31T01:02:14;14.33;;;11.20;;
10509;SDS011;5303;53.266;10.410;2022-10-31T01:04:39;16.83;;;11.77;;
10509;SDS011;5303;53.266;10.410;2022-10-31T01:07:05;16.03;;;11.27;;
10509;SDS011;5303;53.266;10.410;2022-10-31T01:09:30;17.03;;;12.33;;
10509;SDS011;5303;53.266;10.410;2022-10-31T01:11:55;14.10;;;11.10;;
10509;SDS011;5303;53.266;10.410;2022-10-31T01:14:20;15.17;;;11.30;;
10509;SDS011;5303;53.266;10.410;2022-10-31T01:16:46;13.87;;;11.00;;
10509;SDS011;5303;53.266;10.410;2022-10-31T01:19:11;13.70;;;11.17;;
10509;SDS011;5303;53.266;10.410;2022-10-31T01:21:36;13.20;;;10.83;;
10509;SDS011;5303;53.266;10.410;2022-10-31T01:24:01;17.23;;;11.00;;
10509;SDS011;5303;53.266;10.410;2022-10-31T01:26:28;14.00;;;11.03;;
10509;SDS011;5303;53.266;10.410;2022-10-31T01:29:03;17.23;;;11.67;;
10509;SDS011;5303;53.266;10.410;2022-10-31T01:31:31;16.50;;;12.27;;
10509;SDS011;5303;53.266;10.410;2022-10-31T01:33:59;17.30;;;11.50;;
10509;SDS011;5303;53.266;10.410;2022-10-31T01:36:28;15.47;;;11.40;;
10509;SDS011;5303;53.266;10.410;2022-10-31T01:39:02;13.30;;;11.30;;
10509;SDS011;5303;53.266;10.410;2022-10-31T01:41:33;16.00;;;12.10;;
10509;SDS011;5303;53.266;10.410;2022-10-31T01:44:01;17.60;;;11.70;;
10509;SDS011;5303;53.266;10.410;2022-10-31T01:46:48;17.93;;;12.00;;
10509;SDS011;5303;53.266;10.410;2022-10-31T01:49:37;19.67;;;12.60;;
10509;SDS011;5303;53.266;10.410;2022-10-31T01:55:07;16.23;;;11.70;;
10509;SDS011;5303;53.266;10.410;2022-10-31T01:57:40;16.40;;;11.60;;
10509;SDS011;5303;53.266;10.410;2022-10-31T02:00:09;22.27;;;13.17;;
10509;SDS011;5303;53.266;10.410;2022-10-31T02:02:36;21.27;;;14.80;;
10509;SDS011;5303;53.266;10.410;2022-10-31T02:05:01;24.53;;;16.60;;
10509;SDS011;5303;53.266;10.410;2022-10-31T02:07:32;25.33;;;15.90;;
10509;SDS011;5303;53.266;10.410;2022-10-31T02:10:03;24.50;;;17.30;;
10509;SDS011;5303;53.266;10.410;2022-10-31T02:12:29;30.53;;;19.10;;
10509;SDS011;5303;53.266;10.410;2022-10-31T02:14:57;37.80;;;24.07;;
10509;SDS011;5303;53.266;10.410;2022-10-31T02:17:23;32.80;;;21.83;;
10509;SDS011;5303;53.266;10.410;2022-10-31T02:25:29;42.57;;;27.83;;
10509;SDS011;5303;53.266;10.410;2022-10-31T02:28:08;41.57;;;25.80;;
10509;SDS011;5303;53.266;10.410;2022-10-31T02:30:40;40.97;;;26.73;;
10509;SDS011;5303;53.266;10.410;2022-10-31T02:35:53;25.90;;;19.37;;
10509;SDS011;5303;53.266;10.410;2022-10-31T02:41:09;29.43;;;18.20;;
10509;SDS011;5303;53.266;10.410;2022-10-31T02:44:00;27.93;;;16.90;;
10509;SDS011;5303;53.266;10.410;2022-10-31T02:46:34;30.20;;;17.07;;
10509;SDS011;5303;53.266;10.410;2022-10-31T02:49:18;24.93;;;16.27;;
10509;SDS011;5303;53.266;10.410;2022-10-31T02:57:49;23.30;;;16.20;;
10509;SDS011;5303;53.266;10.410;2022-10-31T03:00:17;29.23;;;18.00;;
10509;SDS011;5303;53.266;10.410;2022-10-31T03:02:48;40.90;;;21.03;;
10509;SDS011;5303;53.266;10.410;2022-10-31T03:05:41;25.80;;;16.80;;
10509;SDS011;5303;53.266;10.410;2022-10-31T03:11:02;43.10;;;25.23;;
10509;SDS011;5303;53.266;10.410;2022-10-31T03:13:39;39.23;;;22.43;;
10509;SDS011;5303;53.266;10.410;2022-10-31T03:18:43;57.57;;;30.87;;
10509;SDS011;5303;53.266;10.410;2022-10-31T03:21:22;52.10;;;29.77;;
10509;SDS011;5303;53.266;10.410;2022-10-31T03:23:55;62.77;;;33.37;;
10509;SDS011;5303;53.266;10.410;2022-10-31T03:26:22;51.17;;;29.40;;
10509;SDS011;5303;53.266;10.410;2022-10-31T03:28:57;58.87;;;30.40;;
10509;SDS011;5303;53.266;10.410;2022-10-31T03:31:28;55.37;;;30.57;;
10509;SDS011;5303;53.266;10.410;2022-10-31T03:33:58;44.40;;;29.23;;
10509;SDS011;5303;53.266;10.410;2022-10-31T03:36:26;50.83;;;29.97;;
10509;SDS011;5303;53.266;10.410;2022-10-31T03:38:55;48.80;;;27.67;;
10509;SDS011;5303;53.266;10.410;2022-10-31T03:41:23;48.37;;;28.70;;
10509;SDS011;5303;53.266;10.410;2022-10-31T03:43:54;43.57;;;27.93;;
10509;SDS011;5303;53.266;10.410;2022-10-31T03:46:22;49.80;;;27.97;;
10509;SDS011;5303;53.266;10.410;2022-10-31T03:48:48;46.60;;;27.23;;
10509;SDS011;5303;53.266;10.410;2022-10-31T03:51:28;48.77;;;28.60;;
10509;SDS011;5303;53.266;10.410;2022-10-31T03:54:02;45.13;;;26.57;;
10509;SDS011;5303;53.266;10.410;2022-10-31T03:56:48;44.73;;;27.63;;
10509;SDS011;5303;53.266;10.410;2022-10-31T03:59:18;43.33;;;27.20;;
10509;SDS011;5303;53.266;10.410;2022-10-31T04:01:52;45.67;;;26.23;;
10509;SDS011;5303;53.266;10.410;2022-10-31T04:04:22;41.27;;;25.87;;
10509;SDS011;5303;53.266;10.410;2022-10-31T04:06:47;44.13;;;27.07;;
10509;SDS011;5303;53.266;10.410;2022-10-31T04:09:15;38.23;;;25.17;;
10509;SDS011;5303;53.266;10.410;2022-10-31T04:11:44;43.23;;;27.27;;
10509;SDS011;5303;53.266;10.410;2022-10-31T04:14:13;41.17;;;24.77;;
10509;SDS011;5303;53.266;10.410;2022-10-31T04:16:42;44.40;;;26.33;;
10509;SDS011;5303;53.266;10.410;2022-10-31T04:19:09;43.07;;;25.60;;
10509;SDS011;5303;53.266;10.410;2022-10-31T04:21:35;44.50;;;26.30;;
10509;SDS011;5303;53.266;10.410;2022-10-31T04:24:00;39.60;;;25.80;;
10509;SDS011;5303;53.266;10.410;2022-10-31T04:26:25;42.10;;;27.03;;
10509;SDS011;5303;53.266;10.410;2022-10-31T04:28:51;40.63;;;25.43;;
10509;SDS011;5303;53.266;10.410;2022-10-31T04:31:16;45.77;;;25.83;;
10509;SDS011;5303;53.266;10.410;2022-10-31T04:33:42;42.20;;;26.77;;
10509;SDS011;5303;53.266;10.410;2022-10-31T04:36:07;41.17;;;25.80;;
10509;SDS011;5303;53.266;10.410;2022-10-31T04:38:33;45.67;;;26.83;;
10509;SDS011;5303;53.266;10.410;2022-10-31T04:40:58;40.23;;;25.03;;
10509;SDS011;5303;53.266;10.410;2022-10-31T04:43:23;42.40;;;25.77;;
10509;SDS011;5303;53.266;10.410;2022-10-31T04:45:49;42.83;;;24.87;;
10509;SDS011;5303;53.266;10.410;2022-10-31T04:48:14;43.57;;;25.77;;
10509;SDS011;5303;53.266;10.410;2022-10-31T04:50:40;47.17;;;26.47;;
10509;SDS011;5303;53.266;10.410;2022-10-31T04:53:05;40.10;;;25.43;;
10509;SDS011;5303;53.266;10.410;2022-10-31T04:55:30;42.90;;;25.80;;
10509;SDS011;5303;53.266;10.410;2022-10-31T04:57:56;39.33;;;25.10;;
10509;SDS011;5303;53.266;10.410;2022-10-31T05:00:21;42.93;;;24.93;;
10509;SDS011;5303;53.266;10.410;2022-10-31T05:02:48;42.20;;;25.60;;
10509;SDS011;5303;53.266;10.410;2022-10-31T05:05:15;38.57;;;24.20;;
10509;SDS011;5303;53.266;10.410;2022-10-31T05:07:41;50.17;;;26.83;;
10509;SDS011;5303;53.266;10.410;2022-10-31T05:10:08;45.80;;;27.10;;
10509;SDS011;5303;53.266;10.410;2022-10-31T05:12:35;45.83;;;28.57;;
10509;SDS011;5303;53.266;10.410;2022-10-31T05:15:00;44.03;;;26.70;;
10509;SDS011;5303;53.266;10.410;2022-10-31T05:17:25;45.90;;;27.23;;
10509;SDS011;5303;53.266;10.410;2022-10-31T05:19:51;44.57;;;28.33;;
10509;SDS011;5303;53.266;10.410;2022-10-31T05:22:16;47.87;;;28.80;;
10509;SDS011;5303;53.266;10.410;2022-10-31T05:24:41;47.83;;;29.13;;
10509;SDS011;5303;53.266;10.410;2022-10-31T05:27:06;46.80;;;28.07;;
10509;SDS011;5303;53.266;10.410;2022-10-31T05:29:32;48.57;;;29.10;;
10509;SDS011;5303;53.266;10.410;2022-10-31T05:31:58;52.67;;;30.07;;
10509;SDS011;5303;53.266;10.410;2022-10-31T05:34:23;59.17;;;29.97;;
10509;SDS011;5303;53.266;10.410;2022-10-31T05:36:49;53.80;;;30.87;;
10509;SDS011;5303;53.266;10.410;2022-10-31T05:39:14;54.00;;;31.00;;
10509;SDS011;5303;53.266;10.410;2022-10-31T05:41:39;51.83;;;31.47;;
10509;SDS011;5303;53.266;10.410;2022-10-31T05:44:05;57.27;;;30.73;;
10509;SDS011;5303;53.266;10.410;2022-10-31T05:46:30;50.00;;;30.40;;
10509;SDS011;5303;53.266;10.410;2022-10-31T05:48:55;52.50;;;30.10;;
10509;SDS011;5303;53.266;10.410;2022-10-31T05:51:20;53.43;;;30.53;;
10509;SDS011;5303;53.266;10.410;2022-10-31T05:53:46;49.20;;;30.30;;
10509;SDS011;5303;53.266;10.410;2022-10-31T05:56:12;45.10;;;28.00;;
10509;SDS011;5303;53.266;10.410;2022-10-31T05:58:37;46.70;;;27.60;;
10509;SDS011;5303;53.266;10.410;2022-10-31T06:01:02;43.63;;;25.23;;
10509;SDS011;5303;53.266;10.410;2022-10-31T06:03:27;51.97;;;30.23;;
10509;SDS011;5303;53.266;10.410;2022-10-31T06:05:53;58.27;;;30.77;;
10509;SDS011;5303;53.266;10.410;2022-10-31T06:08:18;50.67;;;30.03;;
10509;SDS011;5303;53.266;10.410;2022-10-31T06:10:43;47.43;;;28.60;;
10509;SDS011;5303;53.266;10.410;2022-10-31T06:13:09;44.83;;;26.47;;
10509;SDS011;5303;53.266;10.410;2022-10-31T06:15:34;47.00;;;28.17;;
10509;SDS011;5303;53.266;10.410;2022-10-31T06:18:03;43.63;;;27.10;;
10509;SDS011;5303;53.266;10.410;2022-10-31T06:20:30;47.43;;;28.93;;
10509;SDS011;5303;53.266;10.410;2022-10-31T06:22:56;46.47;;;27.93;;
10509;SDS011;5303;53.266;10.410;2022-10-31T06:25:21;38.90;;;23.93;;
10509;SDS011;5303;53.266;10.410;2022-10-31T06:27:47;46.30;;;27.50;;
10509;SDS011;5303;53.266;10.410;2022-10-31T06:30:12;42.97;;;25.27;;
10509;SDS011;5303;53.266;10.410;2022-10-31T06:32:37;44.33;;;26.40;;
10509;SDS011;5303;53.266;10.410;2022-10-31T06:35:03;44.17;;;26.93;;
10509;SDS011;5303;53.266;10.410;2022-10-31T06:37:28;38.20;;;22.53;;
10509;SDS011;5303;53.266;10.410;2022-10-31T06:39:54;45.73;;;26.30;;
10509;SDS011;5303;53.266;10.410;2022-10-31T06:42:19;46.33;;;25.50;;
10509;SDS011;5303;53.266;10.410;2022-10-31T06:44:44;39.60;;;23.07;;
10509;SDS011;5303;53.266;10.410;2022-10-31T06:47:09;50.23;;;26.87;;
10509;SDS011;5303;53.266;10.410;2022-10-31T06:49:35;44.33;;;26.23;;
10509;SDS011;5303;53.266;10.410;2022-10-31T06:52:00;41.53;;;24.90;;
10509;SDS011;5303;53.266;10.410;2022-10-31T06:54:25;36.83;;;23.60;;
10509;SDS011;5303;53.266;10.410;2022-10-31T06:56:51;41.47;;;23.50;;
10509;SDS011;5303;53.266;10.410;2022-10-31T06:59:16;49.47;;;26.47;;
10509;SDS011;5303;53.266;10.410;2022-10-31T07:01:41;44.80;;;26.57;;
10509;SDS011;5303;53.266;10.410;2022-10-31T07:04:08;45.50;;;25.10;;
10509;SDS011;5303;53.266;10.410;2022-10-31T07:06:36;41.10;;;25.53;;
10509;SDS011;5303;53.266;10.410;2022-10-31T07:09:02;48.27;;;26.03;;
10509;SDS011;5303;53.266;10.410;2022-10-31T07:11:28;42.30;;;24.80;;
10509;SDS011;5303;53.266;10.410;2022-10-31T07:13:53;41.60;;;23.97;;
10509;SDS011;5303;53.266;10.410;2022-10-31T07:16:18;40.37;;;22.47;;
10509;SDS011;5303;53.266;10.410;2022-10-31T07:18:44;36.93;;;21.10;;
10509;SDS011;5303;53.266;10.410;2022-10-31T07:21:09;33.80;;;21.10;;
10509;SDS011;5303;53.266;10.410;2022-10-31T07:23:34;41.53;;;21.90;;
10509;SDS011;5303;53.266;10.410;2022-10-31T07:25:59;38.30;;;22.13;;
10509;SDS011;5303;53.266;10.410;2022-10-31T07:28:25;33.50;;;21.13;;
10509;SDS011;5303;53.266;10.410;2022-10-31T07:30:52;35.10;;;20.17;;
10509;SDS011;5303;53.266;10.410;2022-10-31T07:33:18;30.33;;;18.23;;
10509;SDS011;5303;53.266;10.410;2022-10-31T07:35:44;32.37;;;19.30;;
10509;SDS011;5303;53.266;10.410;2022-10-31T07:38:10;29.40;;;19.50;;
10509;SDS011;5303;53.266;10.410;2022-10-31T07:40:37;35.77;;;19.63;;
10509;SDS011;5303;53.266;10.410;2022-10-31T07:43:02;39.07;;;20.13;;
10509;SDS011;5303;53.266;10.410;2022-10-31T07:45:28;32.17;;;18.87;;
10509;SDS011;5303;53.266;10.410;2022-10-31T07:47:53;31.80;;;17.97;;
10509;SDS011;5303;53.266;10.410;2022-10-31T07:50:20;30.67;;;17.90;;
10509;SDS011;5303;53.266;10.410;2022-10-31T07:52:47;38.67;;;20.47;;
10509;SDS011;5303;53.266;10.410;2022-10-31T07:55:13;38.60;;;19.50;;
10509;SDS011;5303;53.266;10.410;2022-10-31T07:57:39;32.87;;;19.60;;
10509;SDS011;5303;53.266;10.410;2022-10-31T08:00:06;33.63;;;19.50;;
10509;SDS011;5303;53.266;10.410;2022-10-31T08:02:33;29.00;;;17.53;;
10509;SDS011;5303;53.266;10.410;2022-10-31T08:04:58;26.33;;;16.30;;
10509;SDS011;5303;53.266;10.410;2022-10-31T08:07:24;32.27;;;18.03;;
10509;SDS011;5303;53.266;10.410;2022-10-31T08:09:50;28.07;;;16.63;;
10509;SDS011;5303;53.266;10.410;2022-10-31T08:12:16;38.00;;;18.37;;
10509;SDS011;5303;53.266;10.410;2022-10-31T08:14:41;25.73;;;15.80;;
10509;SDS011;5303;53.266;10.410;2022-10-31T08:17:06;28.47;;;16.20;;
10509;SDS011;5303;53.266;10.410;2022-10-31T08:19:32;37.77;;;18.23;;
10509;SDS011;5303;53.266;10.410;2022-10-31T08:21:57;33.63;;;16.60;;
10509;SDS011;5303;53.266;10.410;2022-10-31T08:24:23;30.17;;;15.27;;
10509;SDS011;5303;53.266;10.410;2022-10-31T08:26:48;22.57;;;14.20;;
10509;SDS011;5303;53.266;10.410;2022-10-31T08:29:14;24.63;;;14.20;;
10509;SDS011;5303;53.266;10.410;2022-10-31T08:31:40;25.23;;;14.07;;
10509;SDS011;5303;53.266;10.410;2022-10-31T08:34:06;23.77;;;14.53;;
10509;SDS011;5303;53.266;10.410;2022-10-31T08:36:31;23.07;;;13.33;;
10509;SDS011;5303;53.266;10.410;2022-10-31T08:38:57;20.50;;;11.83;;
10509;SDS011;5303;53.266;10.410;2022-10-31T08:41:22;22.03;;;12.03;;
10509;SDS011;5303;53.266;10.410;2022-10-31T08:43:47;19.83;;;12.23;;
10509;SDS011;5303;53.266;10.410;2022-10-31T08:46:13;24.27;;;14.40;;
10509;SDS011;5303;53.266;10.410;2022-10-31T08:48:39;23.53;;;13.30;;
10509;SDS011;5303;53.266;10.410;2022-10-31T08:51:04;20.07;;;11.47;;
10509;SDS011;5303;53.266;10.410;2022-10-31T08:53:29;19.37;;;13.03;;
10509;SDS011;5303;53.266;10.410;2022-10-31T08:55:55;22.23;;;12.77;;
10509;SDS011;5303;53.266;10.410;2022-10-31T08:58:21;25.33;;;13.47;;
10509;SDS011;5303;53.266;10.410;2022-10-31T09:00:48;22.23;;;13.83;;
10509;SDS011;5303;53.266;10.410;2022-10-31T09:03:16;21.00;;;13.43;;
10509;SDS011;5303;53.266;10.410;2022-10-31T09:05:49;19.53;;;12.43;;
10509;SDS011;5303;53.266;10.410;2022-10-31T09:08:15;18.70;;;12.00;;
10509;SDS011;5303;53.266;10.410;2022-10-31T09:10:41;18.90;;;12.50;;
10509;SDS011;5303;53.266;10.410;2022-10-31T09:13:10;20.77;;;12.73;;
10509;SDS011;5303;53.266;10.410;2022-10-31T09:15:43;19.77;;;11.83;;
10509;SDS011;5303;53.266;10.410;2022-10-31T09:18:10;23.77;;;13.53;;
10509;SDS011;5303;53.266;10.410;2022-10-31T09:20:36;20.70;;;12.03;;
10509;SDS011;5303;53.266;10.410;2022-10-31T09:23:06;26.57;;;14.03;;
10509;SDS011;5303;53.266;10.410;2022-10-31T09:25:34;19.20;;;11.60;;
10509;SDS011;5303;53.266;10.410;2022-10-31T09:28:01;17.43;;;12.10;;
10509;SDS011;5303;53.266;10.410;2022-10-31T09:30:28;22.07;;;13.20;;
10509;SDS011;5303;53.266;10.410;2022-10-31T09:32:55;21.60;;;12.20;;
10509;SDS011;5303;53.266;10.410;2022-10-31T09:35:22;18.10;;;11.23;;
10509;SDS011;5303;53.266;10.410;2022-10-31T09:37:53;16.93;;;10.27;;
10509;SDS011;5303;53.266;10.410;2022-10-31T09:40:21;18.17;;;11.27;;
10509;SDS011;5303;53.266;10.410;2022-10-31T09:42:55;20.73;;;11.33;;
10509;SDS011;5303;53.266;10.410;2022-10-31T09:45:31;14.97;;;10.10;;
10509;SDS011;5303;53.266;10.410;2022-10-31T09:51:13;21.97;;;12.50;;
10509;SDS011;5303;53.266;10.410;2022-10-31T09:56:19;21.73;;;11.60;;
10509;SDS011;5303;53.266;10.410;2022-10-31T09:58:47;15.00;;;9.63;;
10509;SDS011;5303;53.266;10.410;2022-10-31T10:03:55;16.40;;;10.53;;
10509;SDS011;5303;53.266;10.410;2022-10-31T10:06:29;19.23;;;11.67;;
10509;SDS011;5303;53.266;10.410;2022-10-31T10:08:59;16.97;;;9.87;;
10509;SDS011;5303;53.266;10.410;2022-10-31T10:11:35;17.50;;;9.77;;
10509;SDS011;5303;53.266;10.410;2022-10-31T10:20:02;13.77;;;7.83;;
10509;SDS011;5303;53.266;10.410;2022-10-31T10:33:36;16.17;;;9.70;;
10509;SDS011;5303;53.266;10.410;2022-10-31T10:36:21;12.67;;;8.37;;
10509;SDS011;5303;53.266;10.410;2022-10-31T10:39:00;14.20;;;7.70;;
10509;SDS011;5303;53.266;10.410;2022-10-31T10:41:31;14.47;;;8.83;;
10509;SDS011;5303;53.266;10.410;2022-10-31T10:43:57;11.63;;;8.13;;
10509;SDS011;5303;53.266;10.410;2022-10-31T10:46:34;12.83;;;8.00;;
10509;SDS011;5303;53.266;10.410;2022-10-31T10:49:31;15.60;;;8.67;;
10509;SDS011;5303;53.266;10.410;2022-10-31T10:52:13;15.73;;;9.67;;
10509;SDS011;5303;53.266;10.410;2022-10-31T10:57:34;15.90;;;9.10;;
10509;SDS011;5303;53.266;10.410;2022-10-31T11:00:10;11.10;;;7.87;;
10509;SDS011;5303;53.266;10.410;2022-10-31T11:02:48;10.33;;;6.73;;
10509;SDS011;5303;53.266;10.410;2022-10-31T11:05:35;11.97;;;7.27;;
10509;SDS011;5303;53.266;10.410;2022-10-31T11:08:07;14.47;;;8.63;;
10509;SDS011;5303;53.266;10.410;2022-10-31T11:10:33;17.67;;;10.33;;
10509;SDS011;5303;53.266;10.410;2022-10-31T11:16:03;10.87;;;7.87;;
10509;SDS011;5303;53.266;10.410;2022-10-31T11:18:29;12.57;;;7.80;;
10509;SDS011;5303;53.266;10.410;2022-10-31T11:20:58;11.00;;;6.70;;
10509;SDS011;5303;53.266;10.410;2022-10-31T11:23:26;9.10;;;6.37;;
10509;SDS011;5303;53.266;10.410;2022-10-31T11:25:54;10.43;;;7.67;;
10509;SDS011;5303;53.266;10.410;2022-10-31T11:28:23;8.73;;;6.80;;
10509;SDS011;5303;53.266;10.410;2022-10-31T11:30:50;10.17;;;6.80;;
10509;SDS011;5303;53.266;10.410;2022-10-31T11:33:20;9.63;;;6.30;;
10509;SDS011;5303;53.266;10.410;2022-10-31T11:35:51;11.83;;;6.47;;
10509;SDS011;5303;53.266;10.410;2022-10-31T11:38:19;9.77;;;6.03;;
10509;SDS011;5303;53.266;10.410;2022-10-31T11:43:28;11.57;;;5.57;;
10509;SDS011;5303;53.266;10.410;2022-10-31T11:45:54;9.53;;;5.97;;
10509;SDS011;5303;53.266;10.410;2022-10-31T11:48:22;11.73;;;6.50;;
10509;SDS011;5303;53.266;10.410;2022-10-31T11:50:54;7.10;;;5.53;;
10509;SDS011;5303;53.266;10.410;2022-10-31T11:53:32;7.20;;;5.33;;
10509;SDS011;5303;53.266;10.410;2022-10-31T11:56:20;8.57;;;5.53;;
10509;SDS011;5303;53.266;10.410;2022-10-31T11:58:54;8.20;;;5.87;;
10509;SDS011;5303;53.266;10.410;2022-10-31T12:01:25;7.30;;;5.03;;
10509;SDS011;5303;53.266;10.410;2022-10-31T12:06:38;10.57;;;5.60;;
10509;SDS011;5303;53.266;10.410;2022-10-31T12:09:37;8.23;;;5.60;;
10509;SDS011;5303;53.266;10.410;2022-10-31T12:12:02;8.57;;;5.20;;
10509;SDS011;5303;53.266;10.410;2022-10-31T12:14:39;7.83;;;5.40;;
10509;SDS011;5303;53.266;10.410;2022-10-31T12:17:16;8.30;;;5.13;;
10509;SDS011;5303;53.266;10.410;2022-10-31T12:25:07;7.60;;;5.60;;
10509;SDS011;5303;53.266;10.410;2022-10-31T12:30:19;12.50;;;5.73;;
10509;SDS011;5303;53.266;10.410;2022-10-31T12:35:33;8.20;;;5.10;;
10509;SDS011;5303;53.266;10.410;2022-10-31T12:49:41;9.40;;;6.10;;
10509;SDS011;5303;53.266;10.410;2022-10-31T12:55:00;9.73;;;5.63;;
10509;SDS011;5303;53.266;10.410;2022-10-31T12:57:30;9.63;;;5.73;;
10509;SDS011;5303;53.266;10.410;2022-10-31T13:00:15;9.97;;;5.47;;
10509;SDS011;5303;53.266;10.410;2022-10-31T13:02:44;6.67;;;4.87;;
10509;SDS011;5303;53.266;10.410;2022-10-31T13:05:13;8.63;;;5.30;;
10509;SDS011;5303;53.266;10.410;2022-10-31T13:07:49;6.57;;;4.67;;
10509;SDS011;5303;53.266;10.410;2022-10-31T13:11:00;6.03;;;4.23;;
10509;SDS011;5303;53.266;10.410;2022-10-31T13:13:30;7.27;;;4.70;;
10509;SDS011;5303;53.266;10.410;2022-10-31T13:16:09;8.57;;;4.77;;
10509;SDS011;5303;53.266;10.410;2022-10-31T13:18:42;11.03;;;4.80;;
10509;SDS011;5303;53.266;10.410;2022-10-31T13:21:18;9.80;;;5.30;;
10509;SDS011;5303;53.266;10.410;2022-10-31T13:23:49;6.27;;;5.00;;
10509;SDS011;5303;53.266;10.410;2022-10-31T13:32:30;8.27;;;4.33;;
10509;SDS011;5303;53.266;10.410;2022-10-31T13:35:07;6.20;;;4.20;;
10509;SDS011;5303;53.266;10.410;2022-10-31T13:37:41;7.33;;;4.87;;
10509;SDS011;5303;53.266;10.410;2022-10-31T13:43:00;8.20;;;4.50;;
10509;SDS011;5303;53.266;10.410;2022-10-31T13:45:31;9.93;;;4.63;;
10509;SDS011;5303;53.266;10.410;2022-10-31T13:50:32;6.13;;;3.80;;
10509;SDS011;5303;53.266;10.410;2022-10-31T13:53:14;5.47;;;4.20;;
10509;SDS011;5303;53.266;10.410;2022-10-31T13:55:46;9.90;;;4.87;;
10509;SDS011;5303;53.266;10.410;2022-10-31T13:58:24;8.10;;;4.93;;
10509;SDS011;5303;53.266;10.410;2022-10-31T14:01:10;9.63;;;4.97;;
10509;SDS011;5303;53.266;10.410;2022-10-31T14:03:40;8.17;;;4.83;;
10509;SDS011;5303;53.266;10.410;2022-10-31T14:06:09;8.87;;;5.53;;
10509;SDS011;5303;53.266;10.410;2022-10-31T14:08:36;7.80;;;4.90;;
10509;SDS011;5303;53.266;10.410;2022-10-31T14:11:05;7.97;;;5.40;;
10509;SDS011;5303;53.266;10.410;2022-10-31T14:13:43;9.07;;;6.67;;
10509;SDS011;5303;53.266;10.410;2022-10-31T14:16:23;10.30;;;6.27;;
10509;SDS011;5303;53.266;10.410;2022-10-31T14:18:57;7.97;;;5.03;;
10509;SDS011;5303;53.266;10.410;2022-10-31T14:21:31;7.77;;;5.60;;
10509;SDS011;5303;53.266;10.410;2022-10-31T14:24:15;7.90;;;5.20;;
10509;SDS011;5303;53.266;10.410;2022-10-31T14:26:59;11.33;;;5.57;;
10509;SDS011;5303;53.266;10.410;2022-10-31T14:29:27;9.37;;;5.47;;
10509;SDS011;5303;53.266;10.410;2022-10-31T14:34:57;10.73;;;6.33;;
10509;SDS011;5303;53.266;10.410;2022-10-31T14:37:49;7.57;;;5.00;;
10509;SDS011;5303;53.266;10.410;2022-10-31T14:40:31;7.07;;;4.80;;
10509;SDS011;5303;53.266;10.410;2022-10-31T14:45:54;8.43;;;5.20;;
10509;SDS011;5303;53.266;10.410;2022-10-31T14:51:09;8.87;;;5.97;;
10509;SDS011;5303;53.266;10.410;2022-10-31T14:56:13;8.77;;;5.00;;
10509;SDS011;5303;53.266;10.410;2022-10-31T14:58:45;8.13;;;5.40;;
10509;SDS011;5303;53.266;10.410;2022-10-31T15:04:04;9.43;;;6.00;;
10509;SDS011;5303;53.266;10.410;2022-10-31T15:06:39;8.63;;;5.23;;
10509;SDS011;5303;53.266;10.410;2022-10-31T15:09:21;9.03;;;5.63;;
10509;SDS011;5303;53.266;10.410;2022-10-31T15:11:48;6.47;;;5.20;;
10509;SDS011;5303;53.266;10.410;2022-10-31T15:14:24;9.60;;;6.07;;
10509;SDS011;5303;53.266;10.410;2022-10-31T15:16:55;8.10;;;4.77;;
10509;SDS011;5303;53.266;10.410;2022-10-31T15:19:26;9.17;;;6.63;;
10509;SDS011;5303;53.266;10.410;2022-10-31T15:21:54;9.27;;;6.47;;
10509;SDS011;5303;53.266;10.410;2022-10-31T15:24:22;9.23;;;5.77;;
10509;SDS011;5303;53.266;10.410;2022-10-31T15:26:52;9.30;;;5.40;;
10509;SDS011;5303;53.266;10.410;2022-10-31T15:29:20;8.70;;;5.97;;
10509;SDS011;5303;53.266;10.410;2022-10-31T15:31:54;7.90;;;6.30;;
10509;SDS011;5303;53.266;10.410;2022-10-31T15:34:36;12.77;;;7.10;;
10509;SDS011;5303;53.266;10.410;2022-10-31T15:37:03;14.33;;;7.87;;
10509;SDS011;5303;53.266;10.410;2022-10-31T15:39:39;10.13;;;6.70;;
10509;SDS011;5303;53.266;10.410;2022-10-31T15:42:13;11.17;;;8.50;;
10509;SDS011;5303;53.266;10.410;2022-10-31T15:44:43;14.30;;;9.33;;
10509;SDS011;5303;53.266;10.410;2022-10-31T15:47:15;14.07;;;9.13;;
10509;SDS011;5303;53.266;10.410;2022-10-31T15:49:50;14.93;;;9.73;;
10509;SDS011;5303;53.266;10.410;2022-10-31T15:55:05;23.23;;;14.67;;
10509;SDS011;5303;53.266;10.410;2022-10-31T15:57:54;21.43;;;15.67;;
10509;SDS011;5303;53.266;10.410;2022-10-31T16:02:49;22.87;;;16.03;;
10509;SDS011;5303;53.266;10.410;2022-10-31T16:05:16;20.03;;;15.17;;
10509;SDS011;5303;53.266;10.410;2022-10-31T16:07:50;21.97;;;15.93;;
10509;SDS011;5303;53.266;10.410;2022-10-31T16:10:26;19.03;;;13.40;;
10509;SDS011;5303;53.266;10.410;2022-10-31T16:12:51;20.00;;;13.80;;
10509;SDS011;5303;53.266;10.410;2022-10-31T16:15:19;18.90;;;13.63;;
10509;SDS011;5303;53.266;10.410;2022-10-31T16:17:49;16.63;;;12.70;;
10509;SDS011;5303;53.266;10.410;2022-10-31T16:20:18;18.37;;;12.63;;
10509;SDS011;5303;53.266;10.410;2022-10-31T16:22:48;18.53;;;13.53;;
10509;SDS011;5303;53.266;10.410;2022-10-31T16:25:16;16.83;;;12.73;;
10509;SDS011;5303;53.266;10.410;2022-10-31T16:27:52;18.63;;;13.63;;
10509;SDS011;5303;53.266;10.410;2022-10-31T16:30:30;19.77;;;13.27;;
10509;SDS011;5303;53.266;10.410;2022-10-31T16:32:56;15.10;;;12.43;;
10509;SDS011;5303;53.266;10.410;2022-10-31T16:35:25;16.63;;;12.17;;
10509;SDS011;5303;53.266;10.410;2022-10-31T16:37:53;16.23;;;11.90;;
10509;SDS011;5303;53.266;10.410;2022-10-31T16:40:19;18.53;;;12.80;;